Time;durP1;ratioP1;P1;durP2;ratioP2;P2;SDS_P1;SDS_P2;PMS_P1;PMS_P2;Temp;Humidity;BMP_temperature;BMP_pressure;BME280_temperature;BME280_humidity;BME280_pressure;Samples;Min_cycle;Max_cycle;Signal;HPM_P1;HPM_P2
2022/04/02 00:01:20;;;;;;;4.13;1.58;;;;;;;15.13;100.00;99228.78;5084164;28;20039;-77
2022/04/02 00:04:07;;;;;;;3.65;1.73;;;;;;;15.19;100.00;99223.16;5099581;28;20058;-77
2022/04/02 00:06:53;;;;;;;5.80;1.60;;;;;;;15.24;100.00;99221.94;5098372;28;20016;-78
2022/04/02 00:09:40;;;;;;;5.40;1.48;;;;;;;15.19;100.00;99226.59;5086804;28;20509;-76
2022/04/02 00:12:28;;;;;;;5.35;1.65;;;;;;;15.10;100.00;99237.72;5085897;28;20059;-77
2022/04/02 00:15:14;;;;;;;4.68;1.33;;;;;;;15.10;100.00;99250.06;5070053;28;20038;-78
2022/04/02 00:18:01;;;;;;;2.88;1.60;;;;;;;15.53;100.00;99251.84;5098566;27;20527;-78
2022/04/02 00:20:46;;;;;;;8.18;1.70;;;;;;;15.46;100.00;99245.25;5097965;28;20028;-78
2022/04/02 00:23:43;;;;;;;6.18;1.65;;;;;;;15.43;100.00;99248.91;5082528;28;20091;-76
2022/04/02 00:26:29;;;;;;;6.65;1.50;;;;;;;15.49;100.00;99245.06;5095881;28;20032;-77
2022/04/02 00:29:15;;;;;;;3.72;1.50;;;;;;;15.25;100.00;99251.78;5096591;28;20361;-77
2022/04/02 00:32:01;;;;;;;4.03;1.33;;;;;;;15.38;100.00;99242.25;5104321;28;20097;-75
2022/04/02 00:34:47;;;;;;;5.07;1.90;;;;;;;15.30;100.00;99249.75;5110511;28;20031;-77
2022/04/02 00:37:33;;;;;;;6.32;1.60;;;;;;;15.23;100.00;99243.13;5089315;28;20024;-78
2022/04/02 00:40:19;;;;;;;4.68;1.50;;;;;;;15.19;100.00;99250.34;5099920;28;20030;-78
2022/04/02 00:43:04;;;;;;;6.20;1.60;;;;;;;14.83;100.00;99255.13;5083131;28;20024;-77
2022/04/02 00:45:55;;;;;;;4.60;1.80;;;;;;;14.91;100.00;99242.38;5095618;28;20142;-78
2022/04/02 00:48:41;;;;;;;4.03;1.50;;;;;;;14.94;100.00;99239.56;5080785;28;20027;-78
2022/04/02 00:51:27;;;;;;;4.53;1.75;;;;;;;14.70;100.00;99257.66;5081907;28;20107;-77
2022/04/02 00:54:16;;;;;;;4.45;1.63;;;;;;;14.84;100.00;99252.41;5095359;28;20016;-79
2022/04/02 00:57:02;;;;;;;4.53;1.40;;;;;;;15.01;100.00;99254.09;5080489;28;20028;-79
2022/04/02 00:59:47;;;;;;;4.82;1.60;;;;;;;15.41;100.00;99249.97;5094219;28;20045;-79
2022/04/02 01:02:34;;;;;;;3.20;1.10;;;;;;;15.21;100.00;99247.63;5081098;28;20110;-77
2022/04/02 01:05:20;;;;;;;3.83;1.30;;;;;;;15.16;100.00;99245.28;5094507;28;20070;-78
2022/04/02 01:08:06;;;;;;;3.92;1.20;;;;;;;15.27;100.00;99257.84;5094428;28;20028;-78
2022/04/02 01:10:55;;;;;;;3.00;1.30;;;;;;;15.37;100.00;99262.50;5079721;28;20459;-78
2022/04/02 01:13:41;;;;;;;4.57;1.42;;;;;;;15.30;100.00;99260.31;5093246;28;20051;-79
2022/04/02 01:16:27;;;;;;;3.65;1.25;;;;;;;15.20;100.00;99262.63;5095086;28;20024;-77
2022/04/02 01:19:13;;;;;;;2.85;1.40;;;;;;;15.09;100.00;99264.19;5080870;28;20031;-79
2022/04/02 01:21:59;;;;;;;2.22;1.27;;;;;;;15.14;100.00;99272.69;5094483;28;20024;-78
2022/04/02 01:24:44;;;;;;;4.22;1.40;;;;;;;15.54;100.00;99279.94;5094006;28;20042;-77
2022/04/02 01:27:30;;;;;;;5.95;1.58;;;;;;;15.06;100.00;99285.47;5094352;28;20343;-79
2022/04/02 01:30:16;;;;;;;5.35;1.58;;;;;;;15.13;100.00;99284.16;5093828;28;20031;-79
2022/04/02 01:33:02;;;;;;;3.95;1.35;;;;;;;15.01;100.00;99291.00;5094179;28;20028;-79
2022/04/02 01:36:00;;;;;;;4.18;1.42;;;;;;;15.30;100.00;99284.88;5093702;28;20034;-80
2022/04/02 01:38:47;;;;;;;5.05;1.60;;;;;;;15.50;100.00;99278.44;5079488;28;20024;-80
2022/04/02 01:41:32;;;;;;;5.22;1.52;;;;;;;15.31;100.00;99281.28;5095157;28;20024;-79
2022/04/02 01:44:18;;;;;;;2.97;1.58;;;;;;;15.36;100.00;99296.91;5094921;28;20024;-79
2022/04/02 01:47:04;;;;;;;2.50;1.30;;;;;;;15.18;100.00;99285.59;5094081;28;20099;-79
2022/04/02 01:49:50;;;;;;;3.65;1.50;;;;;;;15.56;100.00;99286.84;5093904;28;20390;-79
2022/04/02 01:52:36;;;;;;;3.17;1.45;;;;;;;15.44;100.00;99294.66;5093747;28;20504;-79
2022/04/02 01:55:22;;;;;;;3.92;1.40;;;;;;;15.58;100.00;99292.03;5079189;28;20024;-78
2022/04/02 01:58:08;;;;;;;4.50;1.65;;;;;;;15.36;100.00;99284.56;5079760;28;20024;-79
2022/04/02 02:00:55;;;;;;;7.20;1.70;;;;;;;15.26;100.00;99285.16;5078672;28;20043;-78
2022/04/02 02:03:40;;;;;;;3.53;1.60;;;;;;;15.48;100.00;99280.31;5093584;28;20028;-79
2022/04/02 02:06:26;;;;;;;4.38;1.60;;;;;;;14.74;100.00;99287.31;5079174;28;20035;-78
2022/04/02 02:09:12;;;;;;;6.82;1.83;;;;;;;14.90;100.00;99293.41;5094640;28;20352;-78
2022/04/02 02:11:58;;;;;;;3.47;1.65;;;;;;;15.04;100.00;99297.91;5078638;28;20062;-79
2022/04/02 02:14:44;;;;;;;3.50;1.70;;;;;;;15.07;100.00;99309.09;5079101;28;20024;-79
2022/04/02 02:17:30;;;;;;;5.18;1.63;;;;;;;15.17;100.00;99296.25;5078345;28;20036;-79
2022/04/02 02:20:17;;;;;;;3.70;1.80;;;;;;;15.23;100.00;99303.81;5080554;28;20437;-79
2022/04/02 02:23:03;;;;;;;4.05;1.83;;;;;;;15.29;100.00;99295.50;5093123;28;20032;-78
2022/04/02 02:25:49;;;;;;;5.43;1.67;;;;;;;15.17;100.00;99299.72;5096813;28;20066;-79
2022/04/02 02:28:34;;;;;;;6.38;1.98;;;;;;;15.18;100.00;99305.88;5098507;28;20024;-78
2022/04/02 02:31:20;;;;;;;5.57;2.00;;;;;;;15.19;100.00;99300.47;5096940;28;20043;-78
2022/04/02 02:37:11;;;;;;;7.60;2.15;;;;;;;14.72;100.00;99308.47;5097486;28;20125;-79
2022/04/02 02:39:56;;;;;;;4.28;1.90;;;;;;;14.77;100.00;99300.31;5097780;28;20433;-81
2022/04/02 02:42:43;;;;;;;3.92;1.88;;;;;;;15.14;100.00;99307.81;5097982;28;20398;-80
2022/04/02 02:45:31;;;;;;;5.28;1.85;;;;;;;15.30;100.00;99299.88;5101471;28;20085;-78
2022/04/02 02:48:17;;;;;;;8.82;2.35;;;;;;;15.03;100.00;99309.38;5113259;28;20026;-79
2022/04/02 02:51:02;;;;;;;6.25;2.40;;;;;;;14.70;100.00;99305.09;5097296;28;20036;-81
2022/04/02 02:53:48;;;;;;;3.97;1.65;;;;;;;14.95;100.00;99303.72;5097499;28;20351;-81
2022/04/02 02:56:34;;;;;;;4.10;2.08;;;;;;;15.12;100.00;99315.00;5081962;28;20028;-80
2022/04/02 02:59:20;;;;;;;3.90;2.10;;;;;;;15.31;100.00;99307.69;5096882;28;20035;-79
2022/04/02 03:02:06;;;;;;;5.47;2.28;;;;;;;15.23;100.00;99314.38;5096874;28;20368;-80
2022/04/02 03:04:52;;;;;;;6.80;2.47;;;;;;;14.94;100.00;99318.66;5082137;28;20492;-82
2022/04/02 03:07:50;;;;;;;6.88;2.58;;;;;;;15.00;100.00;99320.09;5096572;28;20032;-80
2022/04/02 03:10:36;;;;;;;5.20;2.50;;;;;;;15.22;100.00;99320.59;5082165;28;20024;-79
2022/04/02 03:13:22;;;;;;;6.68;2.75;;;;;;;15.19;100.00;99310.19;5082405;28;20044;-81
2022/04/02 03:16:08;;;;;;;3.95;2.15;;;;;;;15.32;100.00;99327.00;5096587;28;20028;-79
2022/04/02 03:18:55;;;;;;;5.20;2.30;;;;;;;14.28;100.00;99319.81;5096068;28;20414;-80
2022/04/02 03:21:42;;;;;;;6.18;2.10;;;;;;;14.69;100.00;99329.78;5098707;28;20032;-80
2022/04/02 03:24:28;;;;;;;5.53;2.55;;;;;;;14.90;100.00;99327.69;5082673;28;20097;-79
2022/04/02 03:27:14;;;;;;;5.97;2.53;;;;;;;14.52;100.00;99339.53;5096445;28;20024;-80
2022/04/02 03:30:00;;;;;;;4.47;2.50;;;;;;;14.66;100.00;99332.56;5095970;28;20024;-80
2022/04/02 03:32:47;;;;;;;5.43;2.72;;;;;;;14.82;100.00;99343.09;5082571;28;20028;-80
2022/04/02 03:35:32;;;;;;;6.90;3.00;;;;;;;15.01;100.00;99322.66;5081739;28;20123;-80
2022/04/02 03:38:18;;;;;;;6.85;2.83;;;;;;;15.24;100.00;99334.53;5096736;28;20385;-80
2022/04/02 03:41:04;;;;;;;9.70;2.90;;;;;;;14.99;100.00;99332.44;5096272;28;20027;-81
2022/04/02 03:43:51;;;;;;;3.88;2.53;;;;;;;15.02;100.00;99340.19;5096241;28;20020;-81
2022/04/02 03:49:44;;;;;;;3.95;2.35;;;;;;;14.84;100.00;99346.50;5100270;28;20020;-81
2022/04/02 03:52:30;;;;;;;7.82;2.30;;;;;;;14.67;100.00;99350.09;5097220;28;20056;-80
2022/04/02 03:55:16;;;;;;;4.13;2.60;;;;;;;15.00;100.00;99357.03;5096394;28;20016;-81
2022/04/02 03:58:03;;;;;;;6.90;2.63;;;;;;;14.38;100.00;99356.09;5096960;28;20071;-81
2022/04/02 04:00:48;;;;;;;8.00;2.50;;;;;;;14.17;100.00;99359.88;5095497;28;20043;-81
2022/04/02 04:03:34;;;;;;;5.43;2.60;;;;;;;14.50;100.00;99362.47;5095670;28;20091;-80
2022/04/02 04:06:20;;;;;;;5.70;2.83;;;;;;;14.45;100.00;99362.75;5080935;28;20421;-79
2022/04/02 04:09:06;;;;;;;6.55;2.80;;;;;;;14.14;100.00;99364.44;5095463;28;20020;-80
2022/04/02 04:11:52;;;;;;;6.03;3.10;;;;;;;14.63;100.00;99363.53;5096063;28;20035;-81
2022/04/02 04:14:38;;;;;;;5.75;3.28;;;;;;;14.73;100.00;99357.66;5095312;28;20368;-80
2022/04/02 04:17:24;;;;;;;5.32;3.13;;;;;;;14.31;100.00;99364.44;5095138;28;20036;-81
2022/04/02 04:20:11;;;;;;;5.05;3.10;;;;;;;14.40;100.00;99371.84;5095615;28;20036;-79
2022/04/02 04:22:56;;;;;;;6.97;3.40;;;;;;;14.64;100.00;99373.13;5081232;28;20028;-81
2022/04/02 04:25:42;;;;;;;10.10;3.40;;;;;;;14.53;100.00;99373.72;5095002;28;20428;-82
2022/04/02 04:28:28;;;;;;;6.82;3.60;;;;;;;14.55;100.00;99381.56;5094949;28;20341;-82
2022/04/02 04:31:18;;;;;;;7.55;3.78;;;;;;;14.47;100.00;99378.50;5095261;28;20028;-80
2022/04/02 04:34:04;;;;;;;8.50;4.15;;;;;;;14.31;100.00;99378.44;5094915;28;20058;-80
2022/04/02 04:36:49;;;;;;;11.00;4.30;;;;;;;14.43;100.00;99390.13;5094517;28;20093;-81
2022/04/02 04:39:35;;;;;;;7.65;3.78;;;;;;;14.65;100.00;99388.00;5094819;28;20050;-81
2022/04/02 04:42:21;;;;;;;10.65;4.60;;;;;;;14.74;100.00;99390.13;5094620;28;20108;-80
2022/04/02 04:45:07;;;;;;;7.97;4.40;;;;;;;15.05;100.00;99397.19;5095135;28;20024;-81
2022/04/02 04:47:53;;;;;;;8.90;4.07;;;;;;;14.73;100.00;99399.84;5095715;28;20379;-81
2022/04/02 04:50:39;;;;;;;6.05;3.33;;;;;;;14.93;100.00;99400.50;5079559;28;20067;-81
2022/04/02 04:53:24;;;;;;;8.80;4.00;;;;;;;15.02;100.00;99405.28;5094435;28;20105;-81
2022/04/02 04:56:10;;;;;;;8.30;3.70;;;;;;;14.84;100.00;99399.25;5095242;28;20086;-81
2022/04/02 04:58:56;;;;;;;7.75;3.75;;;;;;;15.19;100.00;99399.91;5094325;28;20043;-82
2022/04/02 05:01:42;;;;;;;6.03;3.20;;;;;;;14.86;100.00;99397.38;5097602;28;20083;-80
2022/04/02 05:04:28;;;;;;;8.10;3.10;;;;;;;15.07;100.00;99409.34;5103337;28;20030;-82
2022/04/02 05:07:14;;;;;;;6.57;2.90;;;;;;;14.92;100.00;99410.22;5080011;28;20085;-80
2022/04/02 05:10:01;;;;;;;6.57;3.00;;;;;;;15.04;100.00;99411.31;5094469;28;20024;-80
2022/04/02 05:12:47;;;;;;;6.22;2.80;;;;;;;15.08;100.00;99424.25;5093448;28;20505;-82
2022/04/02 05:15:35;;;;;;;7.68;2.78;;;;;;;15.20;100.00;99426.19;5080715;28;20031;-81
2022/04/02 05:18:23;;;;;;;3.65;2.40;;;;;;;15.26;100.00;99428.47;5079987;28;20437;-81
2022/04/02 05:21:08;;;;;;;5.97;2.47;;;;;;;15.24;100.00;99432.16;5095747;28;20113;-78
2022/04/02 05:23:54;;;;;;;4.07;1.88;;;;;;;15.53;100.00;99428.72;5096960;28;20024;-77
2022/04/02 05:26:40;;;;;;;5.45;2.28;;;;;;;15.64;100.00;99434.22;5095232;28;20032;-78
2022/04/02 05:29:25;;;;;;;5.43;2.50;;;;;;;15.20;100.00;99431.47;5096163;28;20468;-78
2022/04/02 05:32:12;;;;;;;6.57;2.08;;;;;;;15.09;100.00;99431.22;5095691;28;20031;-78
2022/04/02 05:34:58;;;;;;;7.00;2.00;;;;;;;15.26;100.00;99440.84;5096726;28;20059;-78
2022/04/02 05:37:46;;;;;;;3.10;2.13;;;;;;;15.75;100.00;99437.09;5081212;28;20059;-78
2022/04/02 05:40:36;;;;;;;4.63;2.38;;;;;;;15.53;100.00;99447.19;5096539;28;20031;-78
2022/04/02 05:43:21;;;;;;;7.55;2.22;;;;;;;15.45;100.00;99454.69;5095676;28;20024;-78
2022/04/02 05:46:07;;;;;;;5.53;2.10;;;;;;;15.84;100.00;99449.75;5082412;28;20053;-78
2022/04/02 05:48:53;;;;;;;3.60;2.10;;;;;;;15.77;100.00;99451.91;5100165;28;20062;-79
2022/04/02 05:51:39;;;;;;;8.20;2.10;;;;;;;15.48;100.00;99467.72;5101075;28;20091;-79
2022/04/02 05:54:25;;;;;;;6.65;2.17;;;;;;;15.73;100.00;99463.59;5085099;28;20024;-78
2022/04/02 05:57:11;;;;;;;4.10;1.95;;;;;;;15.90;100.00;99468.75;5086272;28;20032;-78
2022/04/02 05:59:57;;;;;;;4.57;1.95;;;;;;;16.29;100.00;99470.81;5099679;28;20088;-78
2022/04/02 06:02:44;;;;;;;4.10;1.98;;;;;;;15.88;100.00;99475.06;5109758;28;20020;-78
2022/04/02 06:05:30;;;;;;;3.03;1.80;;;;;;;15.77;100.00;99467.75;5107963;28;20048;-79
2022/04/02 06:08:16;;;;;;;6.57;1.58;;;;;;;16.06;100.00;99463.38;5104613;28;20020;-79
2022/04/02 06:11:02;;;;;;;5.00;2.05;;;;;;;16.17;100.00;99468.91;5100061;28;20476;-79
2022/04/02 06:13:48;;;;;;;6.43;2.10;;;;;;;16.06;100.00;99473.97;5100092;28;20130;-78
2022/04/02 06:16:34;;;;;;;4.82;1.73;;;;;;;16.10;100.00;99464.91;5089223;28;20040;-79
2022/04/02 06:19:19;;;;;;;6.45;2.00;;;;;;;16.16;100.00;99475.97;5088567;28;20031;-78
2022/04/02 06:22:07;;;;;;;7.28;2.28;;;;;;;16.13;100.00;99472.66;5104015;28;20024;-78
2022/04/02 06:24:53;;;;;;;3.92;2.05;;;;;;;16.12;100.00;99484.19;5102924;28;20042;-79
2022/04/02 06:27:47;;;;;;;4.93;1.98;;;;;;;16.16;100.00;99486.53;5101473;28;20039;-78
2022/04/02 06:30:33;;;;;;;5.38;2.00;;;;;;;16.57;100.00;99481.44;5102226;28;20020;-78
2022/04/02 06:33:19;;;;;;;4.30;1.75;;;;;;;16.35;100.00;99494.22;5087185;28;20046;-78
2022/04/02 06:36:05;;;;;;;4.10;1.92;;;;;;;16.52;100.00;99478.22;5103052;28;20452;-79
2022/04/02 06:38:50;;;;;;;4.07;1.70;;;;;;;16.42;100.00;99487.66;5102653;28;20028;-78
2022/04/02 06:41:36;;;;;;;5.55;1.70;;;;;;;16.69;100.00;99485.97;5089798;28;20062;-78
2022/04/02 06:44:22;;;;;;;5.05;2.53;;;;;;;16.86;100.00;99488.41;5088509;28;20103;-77
2022/04/02 06:47:08;;;;;;;6.28;1.92;;;;;;;16.87;100.00;99498.91;5109777;28;20020;-78
2022/04/02 06:49:54;;;;;;;6.38;3.28;;;;;;;16.91;100.00;99503.06;5092640;28;20103;-79
2022/04/02 06:52:41;;;;;;;4.57;1.90;;;;;;;16.91;100.00;99502.19;5107259;28;20032;-79
2022/04/02 06:55:27;;;;;;;7.20;3.88;;;;;;;17.19;100.00;99496.88;5103444;28;20028;-79
2022/04/02 06:58:38;;;;;;;2.83;1.80;;;;;;;16.91;100.00;99503.06;5099548;28;20440;-78
2022/04/02 07:01:24;;;;;;;3.42;1.80;;;;;;;17.07;100.00;99505.59;5086472;28;20092;-79
2022/04/02 07:04:10;;;;;;;4.45;1.42;;;;;;;16.99;100.00;99513.16;5085263;28;20471;-79
2022/04/02 07:06:56;;;;;;;4.40;2.55;;;;;;;17.09;100.00;99512.50;5085512;28;20031;-77
2022/04/02 07:09:42;;;;;;;9.48;6.60;;;;;;;17.17;100.00;99512.00;5085763;28;20463;-77
2022/04/02 07:12:29;;;;;;;2.65;1.50;;;;;;;17.29;100.00;99529.75;5102428;28;20468;-78
2022/04/02 07:15:15;;;;;;;4.25;1.35;;;;;;;17.39;100.00;99521.13;5104536;28;20027;-78
2022/04/02 07:18:08;;;;;;;1.90;1.20;;;;;;;17.45;100.00;99526.06;5099794;28;20047;-80
2022/04/02 07:20:54;;;;;;;2.55;1.00;;;;;;;17.16;100.00;99523.56;5098586;28;20031;-78
2022/04/02 07:23:44;;;;;;;2.65;1.20;;;;;;;17.43;100.00;99525.31;5098137;28;20032;-78
2022/04/02 07:26:32;;;;;;;3.85;1.00;;;;;;;17.38;100.00;99529.16;5098880;28;20047;-78
2022/04/02 07:29:17;;;;;;;5.50;1.48;;;;;;;17.51;100.00;99524.81;5098435;28;20035;-78
2022/04/02 07:32:04;;;;;;;3.83;0.93;;;;;;;17.33;100.00;99532.09;5099458;28;20052;-78
2022/04/02 07:34:50;;;;;;;3.00;1.10;;;;;;;17.57;100.00;99538.50;5085190;28;20128;-78
2022/04/02 07:37:40;;;;;;;1.70;1.00;;;;;;;17.63;100.00;99548.72;5099566;28;20448;-79
2022/04/02 07:40:30;;;;;;;2.80;0.95;;;;;;;17.84;100.00;99549.16;5084191;28;20035;-78
2022/04/02 07:43:25;;;;;;;3.40;1.50;;;;;;;17.91;100.00;99553.94;5098236;28;20084;-79
2022/04/02 07:46:18;;;;;;;3.53;1.00;;;;;;;18.16;100.00;99561.09;5082938;28;20024;-78
2022/04/02 07:49:06;;;;;;;6.90;1.00;;;;;;;18.40;98.50;99560.34;5099303;28;20046;-78
2022/04/02 07:51:54;;;;;;;2.15;1.02;;;;;;;18.23;97.10;99575.66;5099293;28;20483;-79
2022/04/02 07:54:42;;;;;;;3.58;1.50;;;;;;;18.14;94.22;99560.34;5097704;28;20055;-78
2022/04/02 07:57:37;;;;;;;2.67;1.08;;;;;;;18.37;91.19;99560.53;5099193;28;20474;-78
2022/04/02 08:00:26;;;;;;;3.33;0.98;;;;;;;18.55;90.15;99567.28;5083604;28;20113;-78
2022/04/02 08:03:12;;;;;;;4.55;1.20;;;;;;;18.51;91.35;99580.84;5084360;28;20020;-77
2022/04/02 08:05:58;;;;;;;2.33;0.90;;;;;;;18.80;92.47;99577.03;5109739;28;20024;-78
2022/04/02 08:08:45;;;;;;;3.25;1.10;;;;;;;18.83;93.54;99580.34;5084840;28;20024;-78
2022/04/02 08:11:31;;;;;;;8.20;2.40;;;;;;;19.41;90.18;99582.44;5098744;28;20069;-78
2022/04/02 08:14:18;;;;;;;1.90;1.20;;;;;;;19.17;89.53;99589.47;5097318;28;20055;-77
2022/04/02 08:17:07;;;;;;;2.10;1.02;;;;;;;19.22;89.39;99590.81;5098664;28;20028;-78
2022/04/02 08:19:54;;;;;;;7.00;1.42;;;;;;;19.35;89.24;99588.19;5084545;28;20450;-77
2022/04/02 08:22:39;;;;;;;6.53;1.10;;;;;;;19.62;85.86;99585.38;5096767;28;20112;-77
2022/04/02 08:25:25;;;;;;;3.58;1.10;;;;;;;19.44;88.15;99584.03;5111413;28;20020;-77
2022/04/02 08:28:25;;;;;;;2.30;1.42;;;;;;;19.93;82.98;99584.84;5096456;28;20039;-78
2022/04/02 08:31:14;;;;;;;2.65;1.00;;;;;;;19.97;81.99;99586.31;5094715;28;20093;-79
2022/04/02 08:34:09;;;;;;;1.85;1.10;;;;;;;20.40;79.56;99590.16;5101222;28;20031;-77
2022/04/02 08:37:06;;;;;;;3.20;1.08;;;;;;;20.39;77.63;99580.47;5102932;28;20028;-82
2022/04/02 08:40:07;;;;;;;3.45;1.10;;;;;;;20.29;76.16;99576.84;5098198;28;20031;-80
2022/04/02 08:43:14;;;;;;;1.77;1.00;;;;;;;20.87;72.84;99584.72;5113318;28;20028;-81
2022/04/02 08:46:16;;;;;;;2.13;0.95;;;;;;;20.94;73.38;99573.50;5093748;28;20020;-81
2022/04/02 08:49:27;;;;;;;2.20;0.98;;;;;;;20.71;73.42;99584.22;5097228;28;20039;-82
2022/04/02 08:52:15;;;;;;;4.07;1.35;;;;;;;21.10;72.75;99579.34;5111031;28;20026;-82
2022/04/02 08:55:20;;;;;;;4.55;1.33;;;;;;;20.72;72.99;99577.91;5098305;28;20043;-81
2022/04/02 08:58:15;;;;;;;9.00;1.60;;;;;;;20.94;67.65;99575.34;5095976;28;20016;-82
2022/04/02 09:01:07;;;;;;;7.80;2.55;;;;;;;21.04;67.30;99576.31;5113171;28;20027;-82
2022/04/02 09:04:32;;;;;;;6.80;3.88;;;;;;;20.96;67.35;99558.28;5110111;28;20032;-81
2022/04/02 09:07:57;;;;;;;3.45;1.40;;;;;;;20.63;68.14;99571.50;5096532;28;20059;-82
2022/04/02 09:10:55;;;;;;;7.60;1.42;;;;;;;21.05;70.84;99557.53;5107124;28;20028;-83
2022/04/02 09:14:02;;;;;;;3.67;1.40;;;;;;;20.93;69.67;99549.69;5101574;28;20055;-81
2022/04/02 09:17:01;;;;;;;48.05;3.78;;;;;;;21.06;68.62;99547.75;5111069;28;20024;-81
2022/04/02 09:19:57;;;;;;;7.53;1.50;;;;;;;21.23;67.97;99558.78;5108766;28;20048;-81
2022/04/02 09:23:07;;;;;;;2.60;1.20;;;;;;;21.42;67.34;99556.31;5111901;28;20039;-82
2022/04/02 09:26:01;;;;;;;3.33;1.50;;;;;;;20.87;68.21;99556.31;5115075;28;20087;-81
2022/04/02 09:29:14;;;;;;;3.15;1.20;;;;;;;21.23;68.56;99560.56;5090137;28;20103;-81
2022/04/02 09:32:24;;;;;;;4.32;1.80;;;;;;;21.01;66.25;99565.91;5095810;28;20030;-80
2022/04/02 09:35:50;;;;;;;11.18;1.63;;;;;;;20.99;63.61;99578.47;5083932;28;20032;-79
2022/04/02 09:38:48;;;;;;;11.68;1.63;;;;;;;20.94;66.14;99567.34;5081347;28;20115;-81
2022/04/02 09:41:39;;;;;;;12.48;2.08;;;;;;;20.62;68.55;99569.78;5081964;28;20028;-81
2022/04/02 09:45:03;;;;;;;11.35;1.80;;;;;;;21.07;69.38;99565.41;5097026;28;20020;-79
2022/04/02 09:48:16;;;;;;;8.07;1.40;;;;;;;20.72;70.65;99564.59;5082779;28;20031;-82
2022/04/02 09:51:07;;;;;;;16.30;2.03;;;;;;;20.55;70.32;99563.25;5100060;28;20031;-81
2022/04/02 09:54:03;;;;;;;2.10;0.90;;;;;;;20.84;69.08;99566.31;5083855;28;20024;-81
2022/04/02 09:56:59;;;;;;;8.00;1.35;;;;;;;21.06;68.17;99569.88;5083575;28;20028;-81
2022/04/02 09:59:47;;;;;;;5.63;1.17;;;;;;;20.88;67.00;99565.97;5097110;28;20044;-81
2022/04/02 10:02:42;;;;;;;4.40;1.20;;;;;;;21.34;66.00;99563.25;5094940;28;20044;-80
2022/04/02 10:06:09;;;;;;;2.97;0.80;;;;;;;20.99;67.40;99568.69;5096312;28;20024;-81
2022/04/02 10:09:12;;;;;;;5.28;1.00;;;;;;;21.01;68.45;99558.75;5075545;28;20440;-81
2022/04/02 10:11:59;;;;;;;1.65;1.05;;;;;;;21.55;67.32;99564.19;5079883;28;20039;-79
2022/04/02 10:14:47;;;;;;;3.70;1.00;;;;;;;21.30;67.45;99567.94;5094540;28;20028;-80
2022/04/02 10:17:38;;;;;;;1.45;0.95;;;;;;;21.70;64.74;99560.28;5094432;28;20024;-79
2022/04/02 10:20:29;;;;;;;2.55;1.33;;;;;;;21.10;62.33;99562.53;5094557;28;20028;-80
2022/04/02 10:23:20;;;;;;;6.85;1.50;;;;;;;21.38;59.83;99562.03;5079667;28;20028;-80
2022/04/02 10:26:18;;;;;;;15.88;11.18;;;;;;;21.26;58.30;99544.34;5094931;28;20013;-79
2022/04/02 10:29:12;;;;;;;4.78;2.58;;;;;;;21.50;57.20;99558.38;5094514;28;20088;-79
2022/04/02 10:32:10;;;;;;;1.77;0.80;;;;;;;21.53;56.67;99553.66;5095521;28;20047;-80
2022/04/02 10:35:02;;;;;;;1.88;0.88;;;;;;;21.93;55.02;99556.59;5093944;28;20028;-76
2022/04/02 10:38:03;;;;;;;2.10;0.80;;;;;;;21.92;55.16;99557.59;5078623;28;20038;-78
2022/04/02 10:40:52;;;;;;;3.38;1.00;;;;;;;21.90;54.54;99557.72;5093846;28;20107;-77
2022/04/02 10:44:21;;;;;;;2.90;0.60;;;;;;;21.58;52.46;99550.63;5092276;28;20043;-75
2022/04/02 10:47:09;;;;;;;1.73;0.88;;;;;;;22.24;50.93;99555.78;5098586;28;20378;-77
2022/04/02 10:50:05;;;;;;;2.42;0.80;;;;;;;22.10;52.17;99566.75;5082579;28;20024;-77
2022/04/02 10:52:51;;;;;;;1.67;0.70;;;;;;;21.85;51.32;99562.59;5097087;28;20020;-76
2022/04/02 10:55:45;;;;;;;2.15;0.75;;;;;;;22.23;51.02;99559.41;5096741;28;20031;-77
2022/04/02 10:58:40;;;;;;;6.05;1.00;;;;;;;21.92;50.36;99560.25;5081641;28;20059;-76
2022/04/02 11:01:26;;;;;;;3.42;1.95;;;;;;;22.74;48.77;99555.91;5096729;28;20020;-77
2022/04/02 11:04:37;;;;;;;2.13;0.80;;;;;;;23.04;47.59;99544.41;5081142;28;20114;-74
2022/04/02 11:07:28;;;;;;;4.80;0.90;;;;;;;22.75;47.04;99544.22;5098109;28;20034;-77
2022/04/02 11:10:17;;;;;;;1.63;0.70;;;;;;;22.95;47.05;99548.69;5096899;28;20032;-78
2022/04/02 11:13:06;;;;;;;3.70;0.80;;;;;;;22.83;46.65;99539.06;5081725;28;20185;-78
2022/04/02 11:15:53;;;;;;;5.28;0.70;;;;;;;22.79;46.40;99547.50;5097214;28;20020;-77
2022/04/02 11:19:53;;;;;;;1.15;0.60;;;;;;;22.66;47.26;99529.00;5097183;28;20046;-78
2022/04/02 11:22:01;;;;;;;1.83;0.65;;;;;;;22.29;47.06;99538.41;5097578;28;20036;-79
2022/04/02 11:25:10;;;;;;;1.90;0.70;;;;;;;22.92;45.73;99530.28;5096867;28;20035;-78
2022/04/02 11:28:08;;;;;;;3.63;0.70;;;;;;;23.38;43.29;99533.31;5097501;28;20029;-78
2022/04/02 11:31:04;;;;;;;10.40;0.70;;;;;;;23.52;43.63;99532.91;5096601;28;20070;-78
2022/04/02 11:33:52;;;;;;;1.30;0.70;;;;;;;23.64;43.97;99535.50;5081392;28;20135;-79
2022/04/02 11:36:41;;;;;;;1.67;0.63;;;;;;;23.89;40.51;99535.81;5097617;28;20051;-79
2022/04/02 11:39:37;;;;;;;3.08;0.70;;;;;;;24.06;41.88;99543.19;5093923;28;20091;-76
2022/04/02 11:42:25;;;;;;;2.13;0.60;;;;;;;24.32;40.74;99527.41;5085379;28;20039;-77
2022/04/02 11:45:18;;;;;;;0.60;0.52;;;;;;;23.90;39.74;99520.63;5097359;28;20020;-78
2022/04/02 11:48:12;;;;;;;1.05;0.60;;;;;;;23.80;39.93;99519.75;5096918;28;20039;-79
2022/04/02 11:51:36;;;;;;;2.35;0.60;;;;;;;23.87;38.67;99515.56;5097094;28;20031;-79
2022/04/02 11:54:22;;;;;;;9.32;0.98;;;;;;;23.37;39.06;99512.06;5096045;28;20028;-79
2022/04/02 11:57:10;;;;;;;1.40;0.52;;;;;;;23.57;38.26;99515.63;5081489;28;20089;-80
2022/04/02 11:59:57;;;;;;;2.85;0.95;;;;;;;23.79;38.62;99518.06;5081482;28;20459;-80
2022/04/02 12:02:43;;;;;;;2.80;0.57;;;;;;;23.36;38.58;99505.03;5095942;28;20063;-80
2022/04/02 12:05:39;;;;;;;4.82;1.50;;;;;;;23.42;38.72;99504.47;5095989;28;20039;-79
2022/04/02 12:08:30;;;;;;;4.25;0.90;;;;;;;23.50;39.27;99498.47;5096086;28;20372;-79
2022/04/02 12:11:23;;;;;;;0.90;0.50;;;;;;;23.06;39.31;99486.31;5094405;28;20027;-79
2022/04/02 12:14:10;;;;;;;4.13;0.90;;;;;;;23.93;39.31;99491.78;5095306;28;20101;-80
2022/04/02 12:17:09;;;;;;;4.47;0.80;;;;;;;23.70;37.14;99489.50;5095466;28;20028;-79
2022/04/02 12:19:55;;;;;;;2.47;0.50;;;;;;;23.98;37.98;99486.84;5080926;28;20027;-79
2022/04/02 12:22:44;;;;;;;2.67;0.60;;;;;;;23.73;38.50;99492.72;5095711;28;20028;-80
2022/04/02 12:25:30;;;;;;;0.60;0.52;;;;;;;23.47;38.73;99494.25;5095149;28;20454;-81
2022/04/02 12:28:20;;;;;;;1.30;0.70;;;;;;;23.40;40.59;99485.06;5095606;28;20112;-82
2022/04/02 12:31:06;;;;;;;1.33;0.50;;;;;;;22.31;40.47;99495.59;5095206;28;20047;-81
2022/04/02 12:33:53;;;;;;;1.92;0.70;;;;;;;21.87;40.20;99490.47;5081877;28;20062;-80
2022/04/02 12:36:41;;;;;;;1.30;1.00;;;;;;;21.74;40.07;99484.44;5080157;28;20024;-80
2022/04/02 12:39:27;;;;;;;4.30;2.28;;;;;;;21.72;39.29;99489.91;5080315;28;20032;-81
2022/04/02 12:42:13;;;;;;;11.02;5.68;;;;;;;21.86;39.97;99480.78;5079470;28;20118;-82
2022/04/02 12:45:07;;;;;;;2.35;1.00;;;;;;;21.91;40.88;99479.38;5094016;28;20444;-82
2022/04/02 12:48:02;;;;;;;2.78;1.13;;;;;;;22.16;42.98;99484.38;5081753;28;20040;-82
2022/04/02 12:50:52;;;;;;;1.25;0.70;;;;;;;21.67;45.80;99493.88;5095040;28;20114;-83
2022/04/02 12:53:41;;;;;;;7.90;1.58;;;;;;;21.28;54.19;99474.00;5080567;28;20036;-81
2022/04/02 12:56:33;;;;;;;3.45;1.20;;;;;;;21.88;64.10;99463.66;5081348;28;20111;-82
2022/04/02 12:59:19;;;;;;;1.83;0.90;;;;;;;22.28;58.62;99456.66;5094697;28;20027;-81
2022/04/02 13:02:06;;;;;;;2.95;1.00;;;;;;;22.69;54.59;99470.00;5095194;28;20383;-81
2022/04/02 13:04:54;;;;;;;3.53;0.98;;;;;;;22.97;51.20;99452.41;5094545;28;20028;-82
2022/04/02 13:07:40;;;;;;;1.20;0.70;;;;;;;22.68;51.15;99438.09;5094760;28;20032;-81
2022/04/02 13:10:28;;;;;;;2.33;0.80;;;;;;;22.29;48.78;99434.34;5094317;28;20056;-81
2022/04/02 13:13:15;;;;;;;0.95;0.75;;;;;;;22.75;49.01;99440.06;5094623;28;20048;-81
2022/04/02 13:16:02;;;;;;;1.67;0.70;;;;;;;22.61;45.64;99435.09;5094916;28;20397;-81
2022/04/02 13:22:02;;;;;;;2.95;0.70;;;;;;;22.37;42.59;99431.00;5095513;28;20349;-81
2022/04/02 13:24:57;;;;;;;3.10;0.70;;;;;;;22.63;41.88;99421.63;5081342;28;20036;-82